Time;durP1;ratioP1;P1;durP2;ratioP2;P2;SDS_P1;SDS_P2;PMS_P1;PMS_P2;Temp;Humidity;BMP_temperature;BMP_pressure;BME280_temperature;BME280_humidity;BME280_pressure;Samples;Min_cycle;Max_cycle;Signal;HPM_P1;HPM_P2
2022/10/02 00:01:23;;;;;;;9.27;2.00;;;14.90;99.90;;;;;;5092805;28;20576;-76
2022/10/02 00:03:49;;;;;;;9.73;2.30;;;14.90;99.90;;;;;;5075105;28;20180;-76
2022/10/02 00:06:23;;;;;;;8.67;2.10;;;15.00;99.90;;;;;;5091877;28;20601;-76
2022/10/02 00:08:56;;;;;;;10.43;2.47;;;14.90;99.90;;;;;;5091788;28;20677;-76
2022/10/02 00:11:27;;;;;;;7.53;1.70;;;15.00;99.90;;;;;;5091627;28;20591;-76
2022/10/02 00:14:01;;;;;;;8.27;1.75;;;15.00;99.90;;;;;;5079364;28;20168;-76
2022/10/02 00:16:33;;;;;;;11.33;3.40;;;15.00;99.90;;;;;;5092794;28;20202;-77
2022/10/02 00:18:59;;;;;;;11.73;2.17;;;15.00;99.90;;;;;;5074823;28;20965;-76
2022/10/02 00:21:48;;;;;;;16.40;3.37;;;15.00;99.90;;;;;;5091292;28;20186;-76
2022/10/02 00:24:21;;;;;;;9.98;2.08;;;15.00;99.90;;;;;;5091339;28;20605;-76
2022/10/02 00:27:04;;;;;;;13.60;2.17;;;15.00;99.90;;;;;;5092689;28;20196;-76
2022/10/02 00:29:49;;;;;;;9.27;2.00;;;15.10;99.90;;;;;;5092615;28;20203;-77
2022/10/02 00:32:43;;;;;;;7.65;2.40;;;15.10;99.90;;;;;;5091986;28;20657;-76
2022/10/02 00:35:51;;;;;;;9.38;2.13;;;15.10;99.90;;;;;;5092857;28;20582;-76
2022/10/02 00:38:46;;;;;;;10.33;2.10;;;15.10;99.90;;;;;;5092776;28;20175;-76
2022/10/02 00:41:36;;;;;;;12.10;3.03;;;15.20;99.90;;;;;;5091804;28;20585;-77
2022/10/02 00:44:29;;;;;;;9.30;3.00;;;15.20;99.90;;;;;;5092903;28;20554;-76
2022/10/02 00:47:10;;;;;;;8.87;2.20;;;15.30;99.90;;;;;;5092849;28;20554;-77
2022/10/02 00:49:48;;;;;;;11.10;2.80;;;15.30;99.90;;;;;;5096441;28;20619;-77
2022/10/02 00:52:37;;;;;;;9.43;1.97;;;15.30;99.90;;;;;;5092885;28;21019;-77
2022/10/02 00:55:15;;;;;;;6.27;1.90;;;15.40;99.90;;;;;;5093716;28;20598;-77
2022/10/02 00:57:59;;;;;;;10.70;2.50;;;15.40;99.90;;;;;;5093231;28;20565;-77
2022/10/02 01:00:25;;;;;;;12.30;2.03;;;15.40;99.90;;;;;;5092020;28;20605;-77
2022/10/02 01:03:03;;;;;;;8.40;2.37;;;15.50;99.90;;;;;;5075334;28;20968;-77
2022/10/02 01:05:31;;;;;;;5.77;2.30;;;15.50;99.90;;;;;;5093706;28;20585;-77
2022/10/02 01:07:57;;;;;;;11.40;3.30;;;15.50;99.90;;;;;;5092698;28;20602;-77
2022/10/02 01:10:26;;;;;;;14.50;3.60;;;15.50;99.90;;;;;;5092388;28;20554;-77
2022/10/02 01:12:56;;;;;;;10.17;2.30;;;15.60;99.90;;;;;;5091808;28;20562;-76
2022/10/02 01:15:29;;;;;;;15.03;2.73;;;15.60;99.90;;;;;;5091609;28;20616;-76
2022/10/02 01:17:55;;;;;;;8.53;2.37;;;15.60;99.90;;;;;;5111638;23;20662;-74
2022/10/02 01:20:33;;;;;;;10.70;2.60;;;15.60;99.90;;;;;;5091607;28;20594;-72
2022/10/02 01:23:05;;;;;;;10.32;3.28;;;15.60;99.90;;;;;;5073511;28;20923;-73
2022/10/02 01:25:31;;;;;;;12.77;3.70;;;15.60;99.90;;;;;;5073728;28;20573;-72
2022/10/02 01:27:57;;;;;;;18.67;3.30;;;15.60;99.90;;;;;;5091619;28;20655;-72
2022/10/02 01:30:23;;;;;;;10.40;2.10;;;15.60;99.90;;;;;;5073319;28;20570;-72
2022/10/02 01:32:56;;;;;;;13.23;2.30;;;15.70;99.90;;;;;;5091523;28;20207;-72
2022/10/02 01:35:25;;;;;;;13.07;3.40;;;15.70;99.90;;;;;;5091675;28;20564;-72
2022/10/02 01:37:53;;;;;;;16.60;4.10;;;15.70;99.90;;;;;;5091683;28;21047;-72
2022/10/02 01:40:29;;;;;;;9.37;1.47;;;15.70;99.90;;;;;;5090961;28;21007;-72
2022/10/02 01:43:00;;;;;;;9.33;2.20;;;15.70;99.90;;;;;;5092774;28;20891;-72
2022/10/02 01:45:54;;;;;;;9.17;2.30;;;15.70;99.90;;;;;;5095850;28;20962;-72
2022/10/02 01:48:46;;;;;;;6.50;2.00;;;15.70;99.90;;;;;;5089343;28;21079;-73
2022/10/02 01:51:11;;;;;;;10.57;1.60;;;15.80;99.90;;;;;;5095261;28;21025;-72
2022/10/02 01:53:47;;;;;;;10.03;1.87;;;15.80;99.90;;;;;;5095636;28;20605;-72
2022/10/02 01:56:33;;;;;;;10.57;3.13;;;15.80;99.90;;;;;;5077197;28;20167;-72
2022/10/02 01:59:25;;;;;;;9.30;2.10;;;15.90;99.90;;;;;;5077337;28;20601;-72
2022/10/02 02:02:10;;;;;;;9.60;2.60;;;15.90;99.90;;;;;;5076688;28;20597;-72
2022/10/02 02:04:59;;;;;;;10.63;2.33;;;15.90;99.90;;;;;;5077084;28;20565;-72
2022/10/02 02:07:47;;;;;;;11.27;2.53;;;16.00;99.90;;;;;;5086869;28;20679;-72
2022/10/02 02:10:23;;;;;;;14.43;3.50;;;16.00;99.90;;;;;;5076818;28;20676;-73
2022/10/02 02:13:00;;;;;;;14.00;3.80;;;16.00;99.90;;;;;;5095218;28;20895;-72
2022/10/02 02:16:00;;;;;;;13.00;3.30;;;16.00;99.90;;;;;;5096897;28;20567;-72
2022/10/02 02:18:34;;;;;;;11.30;3.63;;;16.10;99.90;;;;;;5094938;28;20578;-72
2022/10/02 02:21:07;;;;;;;14.20;4.97;;;16.10;99.90;;;;;;5076865;28;20565;-72
2022/10/02 02:23:36;;;;;;;16.83;3.70;;;16.10;99.90;;;;;;5094872;28;20588;-72
2022/10/02 02:26:07;;;;;;;6.87;2.90;;;16.10;99.90;;;;;;5076691;28;20561;-72
2022/10/02 02:28:35;;;;;;;9.67;3.23;;;16.20;99.90;;;;;;5076726;28;20616;-72
2022/10/02 02:31:03;;;;;;;8.90;2.80;;;16.20;99.90;;;;;;5094525;28;20550;-72
2022/10/02 02:33:46;;;;;;;12.30;3.10;;;16.20;99.90;;;;;;5094377;28;20557;-72
2022/10/02 02:36:16;;;;;;;12.60;3.30;;;16.20;99.90;;;;;;5094453;28;20992;-72
2022/10/02 02:38:50;;;;;;;8.30;4.07;;;16.20;99.90;;;;;;5076387;28;20573;-73
2022/10/02 02:41:24;;;;;;;9.90;2.43;;;16.20;99.90;;;;;;5094249;28;20600;-72
2022/10/02 02:44:03;;;;;;;9.20;2.80;;;16.20;99.90;;;;;;5094715;28;20577;-72
2022/10/02 02:47:02;;;;;;;10.70;1.87;;;16.20;99.90;;;;;;5076472;28;20589;-72
2022/10/02 02:49:57;;;;;;;13.40;2.40;;;16.20;99.90;;;;;;5076059;28;20646;-72
2022/10/02 02:52:45;;;;;;;11.40;2.40;;;16.30;99.90;;;;;;5091788;28;20637;-72
2022/10/02 02:55:17;;;;;;;12.40;2.77;;;16.30;99.90;;;;;;5093577;28;21156;-72
2022/10/02 02:57:53;;;;;;;8.00;2.30;;;16.30;99.90;;;;;;5094431;28;21161;-72
2022/10/02 03:00:19;;;;;;;9.13;1.77;;;16.30;99.90;;;;;;5094117;28;20561;-72
2022/10/02 03:02:45;;;;;;;9.80;2.40;;;16.30;99.90;;;;;;5094241;28;20615;-72
2022/10/02 03:05:13;;;;;;;13.77;2.40;;;16.40;99.90;;;;;;5076162;28;20968;-73
2022/10/02 03:07:46;;;;;;;8.30;2.63;;;16.40;99.90;;;;;;5093970;28;20596;-72
2022/10/02 03:10:20;;;;;;;10.43;2.00;;;16.40;99.90;;;;;;5075891;28;20565;-72
2022/10/02 03:13:04;;;;;;;7.67;2.30;;;16.50;99.90;;;;;;5094057;28;20558;-72
2022/10/02 03:16:04;;;;;;;9.47;3.20;;;16.50;99.90;;;;;;5094249;28;20719;-73
2022/10/02 03:18:42;;;;;;;9.13;2.10;;;16.50;99.90;;;;;;5094152;28;20919;-72
2022/10/02 03:21:19;;;;;;;11.40;2.80;;;16.60;99.90;;;;;;5075570;28;20569;-72
2022/10/02 03:23:55;;;;;;;7.63;2.57;;;16.60;99.90;;;;;;5093885;28;20557;-72
2022/10/02 03:26:34;;;;;;;13.27;2.30;;;16.60;99.90;;;;;;5093892;28;20641;-72
2022/10/02 03:29:03;;;;;;;11.20;2.63;;;16.60;99.90;;;;;;5096685;28;20711;-72
2022/10/02 03:31:32;;;;;;;7.03;1.83;;;16.60;99.90;;;;;;5093471;28;20569;-72
2022/10/02 03:34:00;;;;;;;12.37;2.87;;;16.70;99.90;;;;;;5093805;28;20919;-72
2022/10/02 03:36:26;;;;;;;13.90;3.37;;;16.70;99.90;;;;;;5093649;28;20586;-72
2022/10/02 03:38:55;;;;;;;8.23;1.90;;;16.70;99.90;;;;;;5075476;28;20576;-72
2022/10/02 03:41:21;;;;;;;11.30;1.90;;;16.70;99.90;;;;;;5058339;28;20993;-72
2022/10/02 03:43:47;;;;;;;6.90;1.80;;;16.70;99.90;;;;;;5075595;28;20665;-72
2022/10/02 03:46:12;;;;;;;12.20;2.33;;;16.70;99.90;;;;;;5093365;28;20172;-72
2022/10/02 03:48:38;;;;;;;9.43;2.07;;;16.70;99.90;;;;;;5075365;28;20706;-72
2022/10/02 03:51:04;;;;;;;11.53;2.37;;;16.80;99.90;;;;;;5093086;28;20251;-72
2022/10/02 03:53:35;;;;;;;14.87;2.70;;;16.80;99.90;;;;;;5093362;28;20167;-72
2022/10/02 03:56:08;;;;;;;15.70;3.07;;;16.80;99.90;;;;;;5075331;28;20164;-72
2022/10/02 03:58:38;;;;;;;13.20;2.90;;;16.80;99.90;;;;;;5093167;28;21321;-73
2022/10/02 04:01:30;;;;;;;15.00;2.67;;;16.80;99.90;;;;;;5092960;28;20715;-72
2022/10/02 04:04:13;;;;;;;8.50;2.40;;;16.80;99.90;;;;;;5086116;28;20719;-72
2022/10/02 04:07:04;;;;;;;7.80;1.93;;;16.80;99.90;;;;;;5068637;28;21170;-72
2022/10/02 04:09:39;;;;;;;14.13;2.63;;;16.80;99.90;;;;;;5092825;28;20620;-73
2022/10/02 04:12:23;;;;;;;12.23;4.20;;;16.90;99.90;;;;;;5092844;28;20557;-73
2022/10/02 04:14:58;;;;;;;8.93;1.83;;;16.80;99.90;;;;;;5074775;28;20566;-73
2022/10/02 04:17:43;;;;;;;11.63;2.50;;;16.80;99.90;;;;;;5074401;28;20651;-72
2022/10/02 04:20:18;;;;;;;7.20;2.10;;;16.80;99.90;;;;;;5074558;28;20569;-72
2022/10/02 04:22:50;;;;;;;7.73;1.83;;;16.80;99.90;;;;;;5092618;28;20558;-72
2022/10/02 04:25:22;;;;;;;11.30;1.97;;;16.90;99.90;;;;;;5092691;28;20573;-72
2022/10/02 04:28:33;;;;;;;7.70;2.43;;;16.80;99.90;;;;;;5092628;28;20638;-73
2022/10/02 04:31:01;;;;;;;9.13;1.83;;;16.80;99.90;;;;;;5013379;28;21152;-72
2022/10/02 04:33:27;;;;;;;8.10;1.80;;;16.90;99.90;;;;;;5013443;28;21222;-72
2022/10/02 04:36:06;;;;;;;10.10;2.30;;;16.80;99.90;;;;;;5063073;28;20590;-72
2022/10/02 04:38:47;;;;;;;8.40;1.93;;;16.80;99.90;;;;;;5093336;28;20680;-73
2022/10/02 04:41:38;;;;;;;8.40;2.93;;;16.80;99.90;;;;;;5073955;28;20569;-72
2022/10/02 04:44:10;;;;;;;5.00;1.80;;;16.80;99.90;;;;;;5095179;28;20558;-73
2022/10/02 04:46:35;;;;;;;12.73;2.50;;;16.80;99.90;;;;;;5092288;28;20597;-73
2022/10/02 04:49:37;;;;;;;6.37;1.80;;;16.80;99.90;;;;;;5074098;28;20715;-72
2022/10/02 04:52:37;;;;;;;11.10;2.77;;;16.80;99.90;;;;;;5092014;28;20250;-73
2022/10/02 04:55:34;;;;;;;8.27;1.90;;;16.80;99.90;;;;;;5092327;28;20900;-73
2022/10/02 04:58:12;;;;;;;13.87;2.30;;;16.80;99.90;;;;;;5092044;28;21188;-73
2022/10/02 05:01:07;;;;;;;9.97;1.90;;;16.80;99.90;;;;;;5091640;28;20562;-72
2022/10/02 05:03:38;;;;;;;10.80;1.70;;;16.80;99.90;;;;;;5050320;28;20578;-72
2022/10/02 05:06:13;;;;;;;8.97;1.63;;;16.70;99.90;;;;;;5073821;28;21143;-72
2022/10/02 05:08:55;;;;;;;5.70;2.00;;;16.70;99.90;;;;;;5091798;28;20693;-72
2022/10/02 05:11:51;;;;;;;7.27;1.37;;;16.70;99.90;;;;;;5073433;28;20574;-72
2022/10/02 05:14:47;;;;;;;5.47;1.40;;;16.70;99.90;;;;;;5091973;28;20570;-72
2022/10/02 05:17:16;;;;;;;6.20;1.50;;;16.70;99.90;;;;;;5091114;28;20617;-73
2022/10/02 05:19:41;;;;;;;7.43;1.40;;;16.70;99.90;;;;;;5093064;28;20566;-73
2022/10/02 05:22:28;;;;;;;9.03;2.23;;;16.70;99.90;;;;;;5091720;28;21209;-73
2022/10/02 05:25:09;;;;;;;8.53;2.13;;;16.70;99.90;;;;;;5091734;28;20202;-73
2022/10/02 05:28:03;;;;;;;11.73;2.17;;;16.70;99.90;;;;;;5073700;28;20597;-73
2022/10/02 05:31:00;;;;;;;7.53;1.10;;;16.70;99.90;;;;;;5091321;28;20604;-73
2022/10/02 05:33:31;;;;;;;6.30;1.40;;;16.70;99.90;;;;;;5064034;28;20574;-73
2022/10/02 05:36:09;;;;;;;7.50;1.97;;;16.70;99.90;;;;;;5091526;28;20565;-73
2022/10/02 05:38:53;;;;;;;8.00;1.83;;;16.70;99.90;;;;;;5091579;28;20558;-73
2022/10/02 05:41:48;;;;;;;4.50;1.20;;;16.70;99.90;;;;;;5091198;28;20912;-73
2022/10/02 05:44:33;;;;;;;6.23;1.60;;;16.70;99.90;;;;;;5067688;28;21144;-73
2022/10/02 05:47:18;;;;;;;5.73;1.07;;;16.70;99.90;;;;;;5073410;28;20603;-73
2022/10/02 05:49:56;;;;;;;9.20;1.50;;;16.70;99.90;;;;;;5091046;28;20621;-73
2022/10/02 05:52:45;;;;;;;5.20;1.70;;;16.70;99.90;;;;;;5073388;28;20569;-73
2022/10/02 05:55:39;;;;;;;7.93;1.87;;;16.70;99.90;;;;;;5091492;28;20561;-73
2022/10/02 05:58:16;;;;;;;4.63;1.43;;;16.70;99.90;;;;;;5093107;28;20662;-73
2022/10/02 06:00:50;;;;;;;10.33;2.37;;;16.80;99.90;;;;;;5073302;28;21068;-73
2022/10/02 06:03:30;;;;;;;8.67;2.23;;;16.70;99.90;;;;;;5073254;28;20656;-73
2022/10/02 06:06:05;;;;;;;4.70;1.33;;;16.80;99.90;;;;;;5056331;28;20614;-73
2022/10/02 06:08:37;;;;;;;8.87;2.73;;;16.80;99.90;;;;;;5091378;28;20617;-73
2022/10/02 06:11:26;;;;;;;6.37;1.70;;;16.80;99.90;;;;;;5091173;28;20787;-73
2022/10/02 06:13:59;;;;;;;4.97;1.87;;;16.90;99.90;;;;;;5091118;28;21163;-74
2022/10/02 06:16:45;;;;;;;4.40;1.47;;;16.90;99.90;;;;;;5073035;28;20609;-73
2022/10/02 06:19:15;;;;;;;8.67;1.40;;;16.90;99.90;;;;;;5090933;28;20573;-73
2022/10/02 06:21:47;;;;;;;4.30;1.80;;;17.00;99.90;;;;;;5072989;28;20916;-73
2022/10/02 06:24:27;;;;;;;8.53;1.53;;;17.00;99.90;;;;;;5091169;28;20994;-73
2022/10/02 06:27:19;;;;;;;4.77;1.30;;;17.00;99.90;;;;;;5091171;28;20601;-73
2022/10/02 06:29:56;;;;;;;5.60;1.07;;;17.10;99.90;;;;;;5073578;28;20635;-73
2022/10/02 06:32:36;;;;;;;4.77;1.60;;;17.10;99.90;;;;;;5094967;28;20648;-73
2022/10/02 06:35:11;;;;;;;8.70;1.00;;;17.10;99.90;;;;;;5096222;28;20572;-73
2022/10/02 06:38:01;;;;;;;5.40;0.80;;;17.20;99.90;;;;;;5094800;28;20692;-73
2022/10/02 06:40:36;;;;;;;6.43;1.20;;;17.30;99.90;;;;;;5094572;28;20558;-73
2022/10/02 06:43:13;;;;;;;4.50;1.50;;;17.30;99.90;;;;;;5094789;28;20947;-73
2022/10/02 06:45:57;;;;;;;4.23;0.90;;;17.30;99.90;;;;;;5059831;28;20630;-73
2022/10/02 06:48:24;;;;;;;4.13;1.10;;;17.40;99.90;;;;;;5094523;28;20632;-73
2022/10/02 06:51:04;;;;;;;4.43;1.00;;;17.50;99.90;;;;;;5059533;28;20615;-74
2022/10/02 06:53:45;;;;;;;3.20;1.00;;;17.50;99.90;;;;;;5076404;28;20569;-74
2022/10/02 06:56:42;;;;;;;3.00;0.90;;;17.50;99.90;;;;;;5076121;28;20569;-72
2022/10/02 06:59:17;;;;;;;2.17;0.80;;;17.60;99.90;;;;;;5076124;28;20657;-72
2022/10/02 07:02:08;;;;;;;5.33;0.90;;;17.60;99.90;;;;;;5076186;28;20573;-73
2022/10/02 07:04:54;;;;;;;2.17;0.77;;;17.60;99.90;;;;;;5094404;28;20591;-74
2022/10/02 07:07:26;;;;;;;3.10;0.90;;;17.60;99.90;;;;;;5095049;28;21004;-73
2022/10/02 07:10:11;;;;;;;5.20;1.00;;;17.70;99.90;;;;;;5094495;28;20627;-73
2022/10/02 07:12:49;;;;;;;2.43;0.83;;;17.80;99.90;;;;;;5097030;28;20625;-74
2022/10/02 07:15:40;;;;;;;4.00;0.90;;;17.80;99.90;;;;;;5103191;28;20562;-73
2022/10/02 07:18:25;;;;;;;3.30;1.00;;;17.80;99.90;;;;;;5094828;28;20731;-73
2022/10/02 07:21:06;;;;;;;3.17;0.80;;;17.90;99.90;;;;;;5093819;28;20566;-74
2022/10/02 07:23:41;;;;;;;4.37;0.70;;;17.90;99.90;;;;;;5093998;28;20573;-73
2022/10/02 07:26:36;;;;;;;3.47;1.23;;;17.90;99.90;;;;;;5075900;28;21155;-73
2022/10/02 07:29:07;;;;;;;3.90;0.90;;;17.80;99.90;;;;;;5093773;28;20624;-74
2022/10/02 07:32:00;;;;;;;3.40;0.90;;;17.80;99.90;;;;;;5093339;28;20577;-74
2022/10/02 07:34:42;;;;;;;3.60;0.80;;;17.80;99.90;;;;;;5093918;28;20944;-73
2022/10/02 07:37:27;;;;;;;1.60;0.70;;;17.90;99.90;;;;;;5093607;28;20593;-73
2022/10/02 07:40:09;;;;;;;2.30;0.70;;;17.80;99.90;;;;;;5093494;28;20554;-73
2022/10/02 07:43:05;;;;;;;2.57;0.80;;;17.80;99.90;;;;;;5093470;28;20572;-73
2022/10/02 07:45:50;;;;;;;4.73;0.73;;;17.80;99.90;;;;;;5093662;28;20618;-73
2022/10/02 07:48:49;;;;;;;2.43;0.73;;;17.90;99.90;;;;;;5094512;28;20628;-73
2022/10/02 07:54:28;;;;;;;1.73;0.60;;;17.90;99.90;;;;;;5093474;28;20586;-72
2022/10/02 07:57:15;;;;;;;3.47;0.90;;;17.90;99.90;;;;;;5074988;28;20943;-74
2022/10/02 07:59:43;;;;;;;1.73;0.70;;;17.90;99.90;;;;;;5093017;28;20576;-73
2022/10/02 08:02:25;;;;;;;3.43;0.77;;;17.90;99.90;;;;;;5093080;28;20909;-73
2022/10/02 08:04:59;;;;;;;2.60;0.70;;;17.90;99.90;;;;;;5093247;28;21175;-73
2022/10/02 08:07:27;;;;;;;1.90;0.70;;;17.90;99.90;;;;;;5074774;28;20610;-73
2022/10/02 08:09:54;;;;;;;2.47;0.70;;;18.00;99.90;;;;;;5092840;28;20653;-72
2022/10/02 08:12:36;;;;;;;2.47;0.83;;;17.90;99.90;;;;;;5092913;28;20931;-72
2022/10/02 08:15:05;;;;;;;5.17;1.20;;;17.90;99.90;;;;;;5092898;28;20569;-72
2022/10/02 08:17:42;;;;;;;2.73;0.80;;;17.90;99.90;;;;;;5092688;28;20694;-72
2022/10/02 08:20:31;;;;;;;6.03;0.90;;;17.90;99.90;;;;;;5092771;28;20565;-72
2022/10/02 08:23:08;;;;;;;3.70;0.70;;;17.90;99.90;;;;;;5074677;28;20598;-72
2022/10/02 08:25:47;;;;;;;4.37;0.70;;;17.90;99.90;;;;;;5067354;28;20924;-72
2022/10/02 08:28:15;;;;;;;2.30;0.80;;;17.90;99.90;;;;;;5092590;28;20661;-72
2022/10/02 08:30:41;;;;;;;3.53;0.80;;;18.00;99.90;;;;;;5092260;28;20558;-72
2022/10/02 08:33:17;;;;;;;3.20;0.70;;;18.00;99.90;;;;;;5092336;28;20595;-71
2022/10/02 08:36:08;;;;;;;3.07;0.90;;;18.00;99.90;;;;;;5092410;28;20575;-72
2022/10/02 08:39:10;;;;;;;2.27;0.80;;;18.00;99.90;;;;;;5074299;28;20578;-72
2022/10/02 08:42:10;;;;;;;3.80;0.90;;;18.10;99.90;;;;;;5092268;28;21120;-72
2022/10/02 08:45:17;;;;;;;1.83;0.70;;;18.10;99.90;;;;;;5074210;28;20984;-72
2022/10/02 08:48:01;;;;;;;1.90;0.77;;;18.10;99.90;;;;;;5092337;28;21076;-72
2022/10/02 08:50:51;;;;;;;2.70;0.80;;;18.20;99.90;;;;;;5092002;28;20570;-72
2022/10/02 08:53:48;;;;;;;3.57;0.93;;;18.30;99.90;;;;;;5073458;28;20618;-72
2022/10/02 08:56:41;;;;;;;2.03;0.60;;;18.50;99.90;;;;;;5092329;28;20569;-73
2022/10/02 08:59:25;;;;;;;2.87;1.10;;;18.70;99.90;;;;;;5074228;28;20570;-72
2022/10/02 09:02:28;;;;;;;4.17;1.27;;;18.90;99.90;;;;;;5057457;28;20550;-72
2022/10/02 09:04:57;;;;;;;3.03;1.20;;;19.10;99.90;;;;;;5092828;28;20562;-72
2022/10/02 09:07:42;;;;;;;5.63;1.40;;;19.30;99.90;;;;;;5073932;28;21172;-72
2022/10/02 09:10:29;;;;;;;3.87;1.63;;;19.50;99.90;;;;;;5091699;28;20621;-73
2022/10/02 09:13:07;;;;;;;2.93;0.87;;;19.70;99.90;;;;;;5073665;28;20588;-73
2022/10/02 09:15:52;;;;;;;1.60;0.80;;;20.00;99.90;;;;;;5073876;28;20666;-73
2022/10/02 09:18:46;;;;;;;1.93;0.83;;;20.40;99.90;;;;;;5073500;28;20609;-72
2022/10/02 09:21:20;;;;;;;3.53;0.93;;;20.90;99.90;;;;;;5091518;28;20953;-73
2022/10/02 09:24:07;;;;;;;4.30;1.20;;;21.30;99.90;;;;;;5091866;28;20570;-73
2022/10/02 09:27:03;;;;;;;5.80;1.20;;;21.80;99.90;;;;;;5091721;28;20594;-73
2022/10/02 09:29:49;;;;;;;4.43;1.20;;;22.40;99.90;;;;;;5091321;28;20652;-73
2022/10/02 09:32:56;;;;;;;3.77;1.00;;;22.70;99.90;;;;;;5091473;28;20656;-73
2022/10/02 09:36:05;;;;;;;3.43;0.90;;;22.70;99.90;;;;;;5062481;28;20570;-73
2022/10/02 09:38:54;;;;;;;4.90;1.50;;;22.70;99.90;;;;;;5091791;28;20983;-72
2022/10/02 09:41:48;;;;;;;3.07;1.20;;;22.50;99.90;;;;;;5092414;28;20920;-73
2022/10/02 09:44:33;;;;;;;6.00;0.73;;;22.30;99.90;;;;;;5091554;28;20619;-73
2022/10/02 09:47:18;;;;;;;3.67;1.30;;;22.20;99.90;;;;;;5091681;28;20975;-73
2022/10/02 09:50:11;;;;;;;3.30;1.30;;;22.10;99.90;;;;;;5073035;28;20613;-73
2022/10/02 09:52:52;;;;;;;2.87;0.80;;;21.90;99.90;;;;;;5073280;28;21199;-72
2022/10/02 09:55:28;;;;;;;2.80;1.20;;;21.80;99.90;;;;;;5073487;28;21128;-73
2022/10/02 09:58:15;;;;;;;3.03;0.90;;;21.70;99.90;;;;;;5091404;28;20593;-72
2022/10/02 10:01:08;;;;;;;3.23;0.80;;;21.50;99.90;;;;;;5073158;28;20573;-72
2022/10/02 10:04:07;;;;;;;3.90;0.90;;;21.40;99.90;;;;;;5074053;28;20917;-73
2022/10/02 10:06:58;;;;;;;2.23;1.00;;;21.30;99.90;;;;;;5095386;28;20604;-73
2022/10/02 10:10:05;;;;;;;2.70;1.00;;;21.30;99.90;;;;;;5094905;28;20621;-72
2022/10/02 10:12:50;;;;;;;5.53;1.23;;;21.30;99.90;;;;;;5065903;28;20585;-73
2022/10/02 10:15:18;;;;;;;5.23;0.90;;;21.40;99.90;;;;;;5095403;28;20597;-72
2022/10/02 10:17:58;;;;;;;4.30;1.20;;;21.40;99.90;;;;;;5096896;28;20605;-73
2022/10/02 10:20:53;;;;;;;3.70;1.43;;;21.50;99.90;;;;;;5094923;28;20579;-73
2022/10/02 10:23:40;;;;;;;3.40;0.97;;;21.50;99.90;;;;;;5094696;28;20554;-73
2022/10/02 10:26:35;;;;;;;4.57;1.00;;;21.50;99.90;;;;;;5060184;28;20560;-73
2022/10/02 10:29:16;;;;;;;4.50;1.70;;;21.50;99.90;;;;;;5095183;28;21010;-73
2022/10/02 10:32:05;;;;;;;3.10;1.60;;;21.50;99.90;;;;;;5094993;28;20978;-72
2022/10/02 10:34:49;;;;;;;6.00;2.80;;;21.50;99.90;;;;;;5094986;28;20665;-72
2022/10/02 10:40:34;;;;;;;5.17;1.67;;;21.30;99.90;;;;;;5094592;28;20570;-74
2022/10/02 10:43:35;;;;;;;5.50;1.30;;;21.30;99.90;;;;;;5094883;28;20710;-73
2022/10/02 10:46:05;;;;;;;2.53;1.10;;;21.30;99.90;;;;;;5094856;28;20901;-74
2022/10/02 10:48:33;;;;;;;2.80;1.20;;;21.30;99.90;;;;;;5094655;28;20629;-73
2022/10/02 10:51:17;;;;;;;2.77;1.20;;;21.50;99.90;;;;;;5094497;28;20570;-73
2022/10/02 10:54:03;;;;;;;2.97;1.30;;;21.80;99.90;;;;;;5095062;28;20553;-73
2022/10/02 10:57:09;;;;;;;3.47;1.00;;;22.20;99.90;;;;;;5095055;28;20658;-74
2022/10/02 11:00:02;;;;;;;4.77;1.20;;;22.50;99.90;;;;;;5076247;28;20576;-74
2022/10/02 11:02:53;;;;;;;2.83;1.07;;;22.60;99.90;;;;;;5094559;28;20558;-74
2022/10/02 11:05:34;;;;;;;5.27;1.40;;;22.70;99.90;;;;;;5094412;28;20968;-72
2022/10/02 11:08:24;;;;;;;4.30;1.50;;;22.80;99.90;;;;;;5094243;28;20641;-72
2022/10/02 11:11:06;;;;;;;4.47;1.20;;;22.80;99.90;;;;;;5093958;28;20562;-72
2022/10/02 11:14:02;;;;;;;3.73;1.40;;;22.90;99.90;;;;;;5094153;28;20561;-74
2022/10/02 11:17:09;;;;;;;4.23;1.60;;;22.90;99.90;;;;;;5079801;28;20648;-72
2022/10/02 11:20:01;;;;;;;4.93;1.40;;;22.80;99.90;;;;;;5093912;28;20600;-73
2022/10/02 11:23:04;;;;;;;5.10;1.77;;;22.70;99.90;;;;;;5076323;28;20589;-73
2022/10/02 11:26:03;;;;;;;5.50;1.47;;;22.60;99.90;;;;;;5094018;28;20561;-72
2022/10/02 11:28:45;;;;;;;2.43;0.90;;;22.40;99.90;;;;;;5093864;28;20628;-73
2022/10/02 11:31:29;;;;;;;2.10;0.80;;;22.20;99.90;;;;;;5094660;28;20656;-72
2022/10/02 11:33:56;;;;;;;2.73;1.10;;;22.10;99.90;;;;;;5093939;28;21155;-73
2022/10/02 11:36:21;;;;;;;4.50;1.97;;;22.00;99.90;;;;;;5093753;28;20599;-73
2022/10/02 11:39:03;;;;;;;5.83;1.73;;;21.90;99.90;;;;;;5093613;28;20652;-73
2022/10/02 11:41:58;;;;;;;5.27;2.17;;;21.80;99.90;;;;;;5093381;28;20584;-73
2022/10/02 11:44:32;;;;;;;5.00;1.77;;;21.80;99.90;;;;;;5093523;28;20566;-73
2022/10/02 11:47:19;;;;;;;6.87;2.23;;;21.80;99.90;;;;;;5093365;28;20624;-73
2022/10/02 11:50:00;;;;;;;4.10;1.77;;;21.70;99.90;;;;;;5093008;28;20610;-73
2022/10/02 11:52:41;;;;;;;5.30;1.90;;;21.70;99.90;;;;;;5093366;28;20558;-72
2022/10/02 11:55:31;;;;;;;6.07;2.00;;;21.80;99.90;;;;;;5075182;28;20573;-72
2022/10/02 11:58:46;;;;;;;4.90;1.30;;;21.80;99.90;;;;;;5093193;28;20631;-72
2022/10/02 12:01:30;;;;;;;6.27;2.83;;;21.90;99.90;;;;;;5075179;28;20592;-72
2022/10/02 12:04:24;;;;;;;10.03;3.97;;;22.00;99.90;;;;;;5092921;28;20608;-73
2022/10/02 12:07:07;;;;;;;6.73;4.20;;;22.10;99.90;;;;;;5075126;28;20642;-72
2022/10/02 12:09:59;;;;;;;5.80;2.80;;;22.20;99.90;;;;;;5095935;28;20610;-73
2022/10/02 12:13:01;;;;;;;5.13;2.30;;;22.30;99.90;;;;;;5092950;28;20561;-72
2022/10/02 12:15:40;;;;;;;4.27;2.27;;;22.30;99.90;;;;;;5093045;28;20639;-72
2022/10/02 12:18:19;;;;;;;6.13;3.00;;;22.40;99.90;;;;;;5092793;28;20743;-72
2022/10/02 12:27:21;;;;;;;6.40;3.53;;;22.60;99.90;;;;;;5074075;28;21153;-73
2022/10/02 12:30:06;;;;;;;8.80;4.70;;;22.70;99.90;;;;;;5037225;28;20709;-73
2022/10/02 12:32:44;;;;;;;11.70;6.47;;;22.70;99.90;;;;;;5092522;28;20611;-72
2022/10/02 12:35:26;;;;;;;8.60;5.30;;;22.60;99.90;;;;;;5092730;28;20657;-72
2022/10/02 12:38:33;;;;;;;6.40;3.37;;;22.60;99.90;;;;;;5074381;28;20598;-72
2022/10/02 12:41:06;;;;;;;7.23;3.00;;;22.60;99.90;;;;;;5073704;28;20593;-72
2022/10/02 12:43:49;;;;;;;6.23;3.67;;;22.60;99.90;;;;;;5092640;28;20903;-73
2022/10/02 12:46:40;;;;;;;9.00;4.00;;;22.50;99.90;;;;;;5093645;28;20973;-73
2022/10/02 12:49:44;;;;;;;7.37;3.20;;;22.50;99.90;;;;;;5092871;28;20636;-74
2022/10/02 12:52:21;;;;;;;5.93;3.40;;;22.40;99.90;;;;;;5092413;28;20583;-74
2022/10/02 12:55:21;;;;;;;5.93;4.17;;;22.40;99.90;;;;;;5092240;28;21168;-73
2022/10/02 12:58:26;;;;;;;6.73;4.40;;;22.30;99.90;;;;;;5092204;28;20578;-73
2022/10/02 13:01:30;;;;;;;7.13;4.37;;;22.30;99.90;;;;;;5091819;28;20557;-74
2022/10/02 13:04:16;;;;;;;4.60;2.00;;;22.30;99.90;;;;;;5092159;28;20557;-73
2022/10/02 13:07:19;;;;;;;3.20;1.80;;;22.30;99.90;;;;;;5091961;28;21021;-74
2022/10/02 13:10:04;;;;;;;6.90;2.43;;;22.20;99.90;;;;;;5091797;28;20615;-74
2022/10/02 13:13:07;;;;;;;4.60;3.20;;;22.10;99.90;;;;;;5091773;28;20561;-73
2022/10/02 13:16:04;;;;;;;7.97;4.93;;;22.00;99.90;;;;;;5092194;28;20641;-74
2022/10/02 13:18:51;;;;;;;5.00;3.73;;;21.90;99.90;;;;;;5110919;22;21024;-74
2022/10/02 13:21:54;;;;;;;7.33;4.17;;;21.90;99.90;;;;;;5091590;28;20661;-74
2022/10/02 13:24:49;;;;;;;5.27;2.93;;;21.90;99.90;;;;;;5090908;28;20668;-73
2022/10/02 13:27:42;;;;;;;7.73;3.80;;;21.80;99.90;;;;;;5081987;28;20581;-74
2022/10/02 13:30:24;;;;;;;4.40;3.00;;;21.80;99.90;;;;;;5073272;28;20712;-74
2022/10/02 13:33:08;;;;;;;8.43;5.80;;;21.80;99.90;;;;;;5090282;28;20620;-74
2022/10/02 13:35:45;;;;;;;6.73;5.57;;;21.80;99.90;;;;;;5091583;28;20981;-74
2022/10/02 13:38:35;;;;;;;4.43;2.60;;;21.70;99.90;;;;;;5073107;28;21195;-74
2022/10/02 13:41:19;;;;;;;11.23;4.60;;;21.70;99.90;;;;;;5073584;28;20566;-76
2022/10/02 13:43:58;;;;;;;13.60;7.90;;;21.60;99.90;;;;;;5090422;28;21144;-76
2022/10/02 13:46:41;;;;;;;6.77;4.23;;;21.60;99.90;;;;;;5091652;28;20554;-76
2022/10/02 13:49:26;;;;;;;6.70;2.80;;;21.50;99.90;;;;;;5091521;28;20755;-76
2022/10/02 13:52:15;;;;;;;5.97;3.77;;;21.50;99.90;;;;;;5091498;28;20585;-76
2022/10/02 13:55:03;;;;;;;5.93;4.20;;;21.50;99.90;;;;;;5080846;28;20631;-76
2022/10/02 13:57:37;;;;;;;4.67;3.67;;;21.40;99.90;;;;;;5090226;28;20605;-76
2022/10/02 14:00:21;;;;;;;6.43;3.60;;;21.40;99.90;;;;;;5091509;28;20561;-76
2022/10/02 14:02:49;;;;;;;8.70;5.33;;;21.30;99.90;;;;;;5094201;28;21000;-76
2022/10/02 14:05:15;;;;;;;10.17;6.40;;;21.30;99.90;;;;;;5091466;28;20558;-75
2022/10/02 14:07:56;;;;;;;6.77;4.67;;;21.20;99.90;;;;;;5089941;28;20608;-76
2022/10/02 14:10:52;;;;;;;8.17;3.93;;;21.10;99.90;;;;;;5090409;28;20233;-76
2022/10/02 14:13:50;;;;;;;5.77;3.13;;;21.10;99.90;;;;;;5091629;28;20554;-77
2022/10/02 14:16:24;;;;;;;5.10;3.67;;;21.10;99.90;;;;;;5089931;28;20573;-76